Marionville, Virginia
Current Conditions -  °F | °C
As of 7:15 AM on Friday 24 Oct 2014 (Local Time) from KMFV Reporting Station
Clear Clear  
Wind Chill: 55°   Ceiling: Unl
Heat Index: 55°   Visibility: 10mi
Dew Point: 43°   Wind: 10mph
Humidity: 63%   Direction: 330°NNW
Pressure: 29.91"   Gusts: 22mph
Location:  37.45°N, 75.85°W
Report Text: KMFV 241115Z AUTO 33009G19KT 280V010 10SM CLR 13/06 A2991 RMK AO2
Loading
Personal Weather Stations






























Interactive Weather Map
Tropical Storm Tracking
New forecast layout! Learn more

10-Day Weather Forecast

Advertisements
Track Severe Weather on mobile